createdAt,value
2018-01-15T08:02:54.833Z,30
2018-01-15T08:04:03.661Z,30
2018-01-15T08:05:12.488Z,35
2018-01-15T08:06:21.321Z,40
2018-01-15T08:07:30.418Z,40
2018-01-15T08:08:39.243Z,45
2018-01-15T08:09:48.344Z,45
2018-01-15T08:10:57.170Z,50
2018-01-15T08:12:06.094Z,55
2018-01-15T08:13:14.920Z,60
2018-01-15T08:14:23.744Z,60
2018-01-15T08:15:32.569Z,65
2018-01-15T08:16:41.395Z,70
2018-01-15T08:17:50.221Z,70
2018-01-15T08:18:59.045Z,75
2018-01-15T08:20:07.871Z,75
2018-01-15T08:21:16.695Z,80
2018-01-15T08:22:25.524Z,75
2018-01-15T08:23:34.347Z,65
2018-01-15T08:24:43.173Z,55
2018-01-15T08:25:51.998Z,60
2018-01-15T08:27:00.823Z,65
2018-01-15T08:28:09.648Z,70
2018-01-15T08:29:18.624Z,70
2018-01-15T08:30:27.451Z,75
2018-01-15T08:31:36.277Z,80
2018-01-15T08:32:45.136Z,85
2018-01-15T08:33:53.926Z,85
2018-01-15T08:35:02.801Z,80
2018-01-15T08:36:11.627Z,65
2018-01-15T08:37:20.449Z,60
2018-01-15T08:38:29.275Z,55
2018-01-15T08:39:38.098Z,50
2018-01-15T08:40:46.924Z,50
2018-01-15T08:41:56.023Z,50
2018-01-15T08:43:04.849Z,50
2018-01-15T08:44:13.674Z,50
2018-01-15T08:45:22.499Z,55
2018-01-15T08:46:31.573Z,55
2018-01-15T08:47:40.398Z,60
2018-01-15T08:48:49.224Z,65
2018-01-15T08:49:58.054Z,65
2018-01-15T08:51:06.921Z,65
2018-01-15T08:52:15.894Z,65
2018-01-15T08:53:24.719Z,65
2018-01-15T08:54:33.544Z,65
2018-01-15T08:55:42.369Z,70
2018-01-15T08:56:51.193Z,75
2018-01-15T08:58:00.034Z,70
2018-01-15T08:59:09.140Z,65
2018-01-15T09:00:17.964Z,70
2018-01-15T09:01:26.790Z,75
2018-01-15T09:02:35.617Z,80
2018-01-15T09:03:44.592Z,80
2018-01-15T09:04:53.419Z,80
2018-01-15T09:06:02.246Z,90
2018-01-15T09:07:11.071Z,95
2018-01-15T09:08:19.898Z,95
2018-01-15T09:09:28.922Z,100
2018-01-15T09:10:37.747Z,110
2018-01-15T09:11:46.571Z,110
2018-01-15T09:12:55.398Z,110
2018-01-15T09:14:04.496Z,110
2018-01-15T09:15:13.474Z,110
2018-01-15T09:16:22.304Z,115
2018-01-15T09:17:31.125Z,120
2018-01-15T09:18:39.952Z,120
2018-01-15T09:19:48.777Z,125
2018-01-15T09:20:57.701Z,125
2018-01-15T09:22:06.529Z,125
2018-01-15T09:23:15.355Z,125
2018-01-15T09:24:24.185Z,125
2018-01-15T09:25:33.008Z,120
2018-01-15T09:26:41.934Z,120
2018-01-15T09:27:50.760Z,125
2018-01-15T09:28:59.588Z,125
2018-01-15T09:30:08.413Z,125
2018-01-15T09:31:17.240Z,130
2018-01-15T09:32:26.116Z,135
2018-01-15T09:33:34.942Z,140
2018-01-15T09:34:44.040Z,145
2018-01-15T09:35:52.863Z,145
2018-01-15T09:37:01.964Z,150
2018-01-15T09:38:11.189Z,155
2018-01-15T09:39:20.016Z,155
2018-01-15T09:40:28.840Z,160
2018-01-15T09:41:37.665Z,170
2018-01-15T09:42:46.491Z,170
2018-01-15T09:43:55.368Z,170
2018-01-15T09:45:04.195Z,170
2018-01-15T09:46:13.019Z,165
2018-01-15T09:47:21.846Z,165
2018-01-15T09:48:30.669Z,170
2018-01-15T09:49:39.544Z,180
2018-01-15T09:50:48.370Z,185
2018-01-15T09:51:57.196Z,195
2018-01-15T09:53:06.022Z,200
2018-01-15T09:54:14.847Z,210
2018-01-15T09:55:23.923Z,215
2018-01-15T09:56:32.750Z,220
2018-01-15T09:57:41.576Z,225
2018-01-15T09:58:50.403Z,235
2018-01-15T09:59:59.226Z,240
2018-01-15T10:01:08.155Z,250
2018-01-15T10:02:16.981Z,255
2018-01-15T10:03:26.080Z,255
2018-01-15T10:04:34.911Z,250
2018-01-15T10:05:44.003Z,245
2018-01-15T10:06:52.881Z,240
2018-01-15T10:08:01.984Z,240
2018-01-15T10:09:10.818Z,240
2018-01-15T10:10:19.635Z,235
2018-01-15T10:11:28.459Z,220
2018-01-15T10:12:37.864Z,210
2018-01-15T10:13:46.962Z,200
2018-01-15T10:14:55.789Z,195
2018-01-15T10:16:04.617Z,190
2018-01-15T10:17:13.444Z,185
2018-01-15T10:18:22.370Z,175
2018-01-15T10:19:31.197Z,170
2018-01-15T10:20:40.022Z,160
2018-01-15T10:21:49.132Z,155
2018-01-15T10:22:57.958Z,145
2018-01-15T10:24:06.785Z,135
2018-01-15T10:25:15.611Z,130
2018-01-15T10:26:24.438Z,120
2018-01-15T10:27:33.265Z,115
2018-01-15T10:28:42.089Z,115
2018-01-15T10:29:51.067Z,115
2018-01-15T10:30:59.897Z,115
2018-01-15T10:32:08.723Z,115
2018-01-15T10:33:17.549Z,115
2018-01-15T10:34:26.377Z,120
2018-01-15T10:35:35.201Z,120
2018-01-15T10:36:44.027Z,120
2018-01-15T10:37:52.855Z,125
2018-01-15T10:39:01.681Z,125
2018-01-15T10:40:10.510Z,130
2018-01-15T10:41:19.486Z,130
2018-01-15T10:42:28.313Z,135
2018-01-15T10:43:37.138Z,140
2018-01-15T10:44:45.968Z,145
2018-01-15T10:45:54.795Z,150
2018-01-15T10:47:03.669Z,155
2018-01-15T10:48:12.498Z,165
2018-01-15T10:49:21.324Z,170
2018-01-15T10:50:30.154Z,175
2018-01-15T10:51:39.536Z,175
2018-01-15T10:52:48.364Z,180
2018-01-15T10:53:57.465Z,185
2018-01-15T10:55:06.293Z,190
2018-01-15T10:56:15.119Z,195
2018-01-15T10:57:23.946Z,205
2018-01-15T10:58:32.870Z,215
2018-01-15T10:59:41.695Z,230
2018-01-15T11:00:50.520Z,240
2018-01-15T11:01:59.348Z,250
2018-01-15T11:03:08.176Z,250
2018-01-15T11:04:17.153Z,240
2018-01-15T11:05:25.980Z,240
2018-01-15T11:06:34.806Z,230
2018-01-15T11:07:43.636Z,230
2018-01-15T11:08:52.465Z,230
2018-01-15T11:10:01.345Z,220
2018-01-15T11:11:10.170Z,220
2018-01-15T11:12:19.002Z,220
2018-01-15T11:13:27.826Z,225
2018-01-15T11:14:36.654Z,225
2018-01-15T11:15:45.882Z,230
2018-01-15T11:16:54.710Z,235
2018-01-15T11:18:03.538Z,245
2018-01-15T11:19:12.364Z,250
2018-01-15T11:20:21.273Z,255
2018-01-15T11:21:30.118Z,265
2018-01-15T11:22:38.948Z,265
2018-01-15T11:23:47.777Z,270
2018-01-15T11:24:56.605Z,270
2018-01-15T11:26:05.433Z,265
2018-01-15T11:27:14.311Z,260
2018-01-15T11:28:23.138Z,250
2018-01-15T11:29:31.969Z,240
2018-01-15T11:30:40.795Z,235
2018-01-15T11:31:49.623Z,230
2018-01-15T11:32:58.875Z,220
2018-01-15T11:34:07.977Z,220
2018-01-15T11:35:16.805Z,215
2018-01-15T11:36:25.631Z,210
2018-01-15T11:37:34.461Z,205
2018-01-15T11:38:43.437Z,200
2018-01-15T11:39:52.584Z,200
2018-01-15T11:41:01.412Z,205
2018-01-15T11:42:10.240Z,200
2018-01-15T11:43:19.068Z,200
2018-01-15T11:44:27.996Z,195
2018-01-15T11:45:36.826Z,190
2018-01-15T11:46:45.659Z,190
2018-01-15T11:47:54.483Z,190
2018-01-15T11:49:03.311Z,190
2018-01-15T11:50:12.414Z,185
2018-01-15T11:51:21.516Z,185
2018-01-15T11:52:30.343Z,185
2018-01-15T11:53:39.486Z,185
2018-01-15T11:54:48.274Z,185
2018-01-15T11:55:57.170Z,180
2018-01-15T11:57:05.979Z,180
2018-01-15T11:58:14.807Z,175
2018-01-15T11:59:23.714Z,180
2018-01-15T12:00:32.543Z,180
2018-01-15T12:01:41.622Z,175
2018-01-15T12:02:50.456Z,165
2018-01-15T12:03:59.285Z,155
2018-01-15T12:05:08.114Z,155
2018-01-15T12:06:16.986Z,155
2018-01-15T12:07:25.850Z,155
2018-01-15T12:08:34.994Z,155
2018-01-15T12:09:43.852Z,160
2018-01-15T12:10:52.680Z,165
2018-01-15T12:12:01.548Z,160
2018-01-15T12:13:10.576Z,165
2018-01-15T12:14:19.469Z,160
2018-01-15T12:15:28.320Z,160
2018-01-15T12:16:37.225Z,160
2018-01-15T12:17:46.071Z,160
2018-01-15T12:18:55.203Z,160
2018-01-15T12:20:04.339Z,160
2018-01-15T12:21:13.167Z,160
2018-01-15T12:22:22.013Z,160
2018-01-15T12:23:30.840Z,165
2018-01-15T12:24:39.957Z,170
2018-01-15T12:25:49.105Z,170
2018-01-15T12:26:57.954Z,175
2018-01-15T12:28:06.832Z,175
2018-01-15T12:29:15.661Z,175
2018-01-15T12:30:24.639Z,175
2018-01-15T12:31:33.539Z,175
2018-01-15T12:32:42.383Z,175
2018-01-15T12:33:51.211Z,175
2018-01-15T12:35:00.589Z,175
2018-01-15T12:36:09.966Z,170
2018-01-15T12:37:18.795Z,165
2018-01-15T12:38:27.626Z,165
2018-01-15T12:39:36.455Z,165
2018-01-15T12:40:45.335Z,170
2018-01-15T12:41:54.240Z,170
2018-01-15T12:43:03.067Z,175
2018-01-15T12:44:11.960Z,175
2018-01-15T12:45:20.725Z,175
2018-01-15T12:46:29.572Z,175
2018-01-15T12:47:38.952Z,180
2018-01-15T12:48:47.801Z,175
2018-01-15T12:49:56.682Z,170
2018-01-15T12:51:05.520Z,165
2018-01-15T12:52:14.346Z,160
2018-01-15T12:53:23.287Z,155
2018-01-15T12:54:32.166Z,155
2018-01-15T12:55:40.995Z,150
2018-01-15T12:56:49.823Z,145
2018-01-15T12:57:58.929Z,140
2018-01-15T12:59:07.864Z,130
2018-01-15T13:00:16.692Z,125
2018-01-15T13:01:25.520Z,120
2018-01-15T13:02:34.495Z,120
2018-01-15T13:03:43.349Z,125
2018-01-15T13:04:52.328Z,135
2018-01-15T13:06:01.159Z,150
2018-01-15T13:07:10.038Z,155
2018-01-15T13:08:18.813Z,160
2018-01-15T13:09:27.647Z,160
2018-01-15T13:10:36.623Z,155
2018-01-15T13:11:45.451Z,145
2018-01-15T13:12:54.280Z,140
2018-01-15T13:14:03.112Z,130
2018-01-15T13:15:11.941Z,125
2018-01-15T13:16:21.071Z,115
2018-01-15T13:17:29.899Z,110
2018-01-15T13:18:38.727Z,105
2018-01-15T13:19:47.831Z,100
2018-01-15T13:20:56.659Z,100
2018-01-15T13:22:05.764Z,95
2018-01-15T13:23:14.593Z,95
2018-01-15T13:24:23.418Z,95
2018-01-15T13:25:32.248Z,95
2018-01-15T13:26:41.078Z,90
2018-01-15T13:27:49.955Z,85
2018-01-15T13:28:58.784Z,80
2018-01-15T13:30:07.613Z,75
2018-01-15T13:31:16.436Z,70
2018-01-15T13:32:25.265Z,70
2018-01-15T13:33:34.093Z,65
2018-01-15T13:34:42.921Z,65
2018-01-15T13:35:51.750Z,60
2018-01-15T13:37:00.579Z,55
2018-01-15T13:38:09.411Z,55
2018-01-15T13:39:18.291Z,50
2018-01-15T13:40:27.117Z,50
2018-01-15T13:41:35.946Z,55
2018-01-15T13:42:44.774Z,55
2018-01-15T13:43:53.612Z,60
2018-01-15T13:45:02.538Z,65
2018-01-15T13:46:11.372Z,65
2018-01-15T13:47:20.202Z,70
2018-01-15T13:48:29.038Z,70
2018-01-15T13:49:37.870Z,70
2018-01-15T13:50:47.026Z,75
2018-01-15T13:51:55.877Z,75
2018-01-15T13:53:04.705Z,75
2018-01-15T13:54:13.532Z,75
2018-01-15T13:55:23.117Z,70
2018-01-15T13:56:32.203Z,70
2018-01-15T13:57:41.035Z,70
2018-01-15T13:58:49.864Z,70
2018-01-15T13:59:58.694Z,70
2018-01-15T14:01:07.638Z,70
2018-01-15T14:02:16.742Z,70
2018-01-15T14:03:25.649Z,70
2018-01-15T14:04:34.479Z,70
2018-01-15T14:05:43.307Z,75
2018-01-15T14:06:52.135Z,80
2018-01-15T14:08:00.967Z,85
2018-01-15T14:09:10.344Z,85
2018-01-15T14:10:19.463Z,85
2018-01-15T14:11:28.301Z,90
2018-01-15T14:12:37.126Z,95
2018-01-15T14:13:46.206Z,100
2018-01-15T14:14:55.035Z,105
2018-01-15T14:16:03.861Z,105
2018-01-15T14:17:12.690Z,100
2018-01-15T14:18:21.522Z,95
2018-01-15T14:19:30.646Z,85
2018-01-15T14:20:39.473Z,70
2018-01-15T14:21:48.300Z,60
2018-01-15T14:22:57.129Z,60
2018-01-15T14:24:05.956Z,65
2018-01-15T14:25:15.086Z,70
2018-01-15T14:26:23.913Z,65
2018-01-15T14:27:32.744Z,65
2018-01-15T14:28:41.573Z,65
2018-01-15T14:29:50.402Z,60
2018-01-15T14:30:59.375Z,50
2018-01-15T14:32:08.229Z,45
2018-01-15T14:33:17.629Z,40
2018-01-15T14:34:27.194Z,40
2018-01-15T14:35:36.407Z,35
2018-01-15T14:36:45.600Z,35
2018-01-15T14:37:55.120Z,40
2018-01-15T14:39:04.355Z,35
2018-01-15T14:40:13.281Z,40
2018-01-15T14:41:22.388Z,35
2018-01-15T14:42:31.459Z,30
2018-01-15T14:43:40.931Z,30
2018-01-15T14:44:50.201Z,30
2018-01-15T14:45:59.087Z,30
2018-01-15T14:47:07.925Z,30
2018-01-15T14:48:16.904Z,30
2018-01-15T14:49:25.939Z,25
2018-01-15T14:50:35.057Z,20
2018-01-15T14:51:43.887Z,20
2018-01-15T14:52:52.722Z,20
2018-01-15T14:54:01.947Z,15
2018-01-15T14:55:10.790Z,15
2018-01-15T14:56:19.651Z,15
2018-01-15T14:57:29.045Z,15
2018-01-15T14:58:37.872Z,15
2018-01-15T14:59:46.999Z,10
2018-01-15T15:00:55.928Z,10
2018-01-15T15:02:04.884Z,10
2018-01-15T15:03:14.045Z,15
2018-01-15T15:04:22.899Z,10
2018-01-15T15:05:31.728Z,10
2018-01-15T15:06:40.620Z,10
2018-01-15T15:07:49.887Z,5
2018-01-15T15:08:58.986Z,5
2018-01-15T15:10:08.087Z,10
2018-01-15T15:11:16.930Z,5
2018-01-15T15:12:25.758Z,5
2018-01-15T15:13:34.593Z,5
2018-01-15T15:14:43.429Z,5
2018-01-15T15:15:52.537Z,5
2018-01-15T15:17:01.949Z,5
2018-01-15T15:18:10.818Z,5
2018-01-15T15:19:19.686Z,5
2018-01-15T15:20:28.518Z,5
2018-01-15T15:21:37.345Z,5
